Terminal Aerodrome Forecast
Issued by NWS

Home | Current Version | Previous Version | Text Only | Print | Product List | Glossary On
Versions: 1 2 3 4 5 6 7 8 9 10 11 12 13 14 15 16 17 18 19
000
FTUS42 KTAE 181750 AAB
TAFABY
TAF AMD
KABY 181750Z 1818/1918 22006KT P6SM VCSH BKN020 OVC250
     FM182200 22006KT P6SM VCSH SCT030 OVC250
     FM190600 22003KT 1SM -RA OVC002
     FM191500 20015G25KT 3SM TSRA SCT002 BKN020CB=

USA.gov is the U.S. government's official web portal to all federal, state and local government web resources and services.